WetterOnline ( https://www.wetteronline.de )

Wetter aktuell Rattelsdorf

Aktuelles Wetter: Coburg (323m)

6-stündlich | Neueste Meldungen
Ortszeit Temperatur Wetter
Mi, 12.05. 8:00 11.3° C leichter Regen
Mi, 12.05. 2:00 11.5° C leichter Regen
Di, 11.05. 20:00 15.0° C Sprühregen
Di, 11.05. 14:00 18.4° C bedeckt
Di, 11.05. 8:00 13.7° C leicht bewölkt
Di, 11.05. 2:00 12.8° C bedeckt
Mo, 10.05. 20:00 18.6° C bedeckt
Mo, 10.05. 14:00 24.0° C leicht bewölkt
Ortszeit Temperatur Wetter
Mi, 12.05. 9:30 11.4° C Sprühregen
Mi, 12.05. 9:20 11.4° C Sprühregen
Mi, 12.05. 9:10 11.4° C Sprühregen
Mi, 12.05. 9:00 11.4° C leichter Regen
Mi, 12.05. 8:50 11.4° C leichter Regen
Mi, 12.05. 8:40 11.3° C leichter Regen
Mi, 12.05. 8:30 11.4° C Sprühregen
Mi, 12.05. 8:00 11.3° C leichter Regen
Ortszeit Relative Feuchte Sichtweite
Mi, 12.05. 8:00 94% 7 km
Mi, 12.05. 2:00 96% 13 km
Di, 11.05. 20:00 82% 21 km
Di, 11.05. 14:00 71% 50 km
Di, 11.05. 8:00 79% 65 km
Di, 11.05. 2:00 79% >70 km
Mo, 10.05. 20:00 57% >70 km
Mo, 10.05. 14:00 42% 45 km
Ortszeit Relative Feuchte Sichtweite
Mi, 12.05. 9:30 89% 8 km
Mi, 12.05. 9:20 89% -
Mi, 12.05. 9:10 89% -
Mi, 12.05. 9:00 91% 8 km
Mi, 12.05. 8:50 91% -
Mi, 12.05. 8:40 89% -
Mi, 12.05. 8:30 91% 8 km
Mi, 12.05. 8:00 94% 7 km
Ortszeit Niederschlagsmenge Niederschlagsart
Mi, 12.05. 8:00 9 l/m2 in 12 Std. Regen
Mi, 12.05. 2:00 4 l/m2 in 6 Std. Regen
Di, 11.05. 20:00 0.1 l/m2 in 12 Std. Regen
Di, 11.05. 14:00 0.0 l/m2 in 6 Std. -
Di, 11.05. 8:00 0.1 l/m2 in 12 Std. -
Di, 11.05. 2:00 0.1 l/m2 in 6 Std. Regen
Mo, 10.05. 20:00 0.0 l/m2 in 12 Std. -
Mo, 10.05. 14:00 0.0 l/m2 in 6 Std. -
Ortszeit Niederschlagsmenge Niederschlagsart
Mi, 12.05. 9:30 0.1 l/m2 in 1 Std. -
Mi, 12.05. 9:20 keine Meldung -
Mi, 12.05. 9:10 keine Meldung -
Mi, 12.05. 9:00 0.4 l/m2 in 1 Std. Regen
Mi, 12.05. 8:50 keine Meldung -
Mi, 12.05. 8:40 keine Meldung -
Mi, 12.05. 8:30 0.3 l/m2 in 1 Std. -
Mi, 12.05. 8:00 0.8 l/m2 in 1 Std. Regen
Ortszeit Stärke Spitze Richtung
km/h Bft. km/h Grad Sektor
Mi, 12.05. 8:00 15 3 24 290° W
Mi, 12.05. 2:00 9 2 28 300° NW
Di, 11.05. 20:00 13 3 37 280° W
Di, 11.05. 14:00 11 2 22 290° W
Di, 11.05. 8:00 4 1 18 190° S
Di, 11.05. 2:00 4 1 18 280° W
Mo, 10.05. 20:00 13 3 37 290° W
Mo, 10.05. 14:00 19 3 30 290° W
Ortszeit Stärke Spitze Richtung
km/h Bft. km/h Grad Sektor
Mi, 12.05. 9:30 18 3 25 300° NW
Mi, 12.05. 9:20 18 3 - 300° NW
Mi, 12.05. 9:10 18 3 - 300° NW
Mi, 12.05. 9:00 14 3 29 300° NW
Mi, 12.05. 8:50 14 3 - 300° NW
Mi, 12.05. 8:40 17 3 - 300° NW
Mi, 12.05. 8:30 17 3 26 300° NW
Mi, 12.05. 8:00 15 3 24 290° W
Ortszeit Untergrenze Bedeckung Gattung
total tief tief mittel hoch
Mi, 12.05. 8:00 180 m 8/8 8/8 - - -
Mi, 12.05. 2:00 180 m 7/8 7/8 - - -
Di, 11.05. 20:00 570 m 8/8 8/8 - - -
Di, 11.05. 14:00 3000 m 8/8 8/8 - - -
Di, 11.05. 8:00 4200 m 3/8 2/8 - - -
Di, 11.05. 2:00 3900 m 8/8 8/8 - - -
Mo, 10.05. 20:00 3000 m 8/8 8/8 - - -
Mo, 10.05. 14:00 7800 m 4/8 0/8 - - -
Ortszeit Bedeckungsgrad in Achtel und Wolkenuntergrenze
Mi, 12.05. 9:30 3(450m) 7(660m) 8(1800m)
Mi, 12.05. 9:20 3(450m) 7(660m) 8(1800m)
Mi, 12.05. 9:10 4(480m) 7(690m) 8(1800m)
Mi, 12.05. 9:00 4(390m) 7(510m)
Mi, 12.05. 8:50 4(390m) 7(510m)
Mi, 12.05. 8:40 6(450m) 7(600m) 8(1800m)
Mi, 12.05. 8:30 1(330m) 4(720m) 8(1800m)
Mi, 12.05. 8:00 3(180m) 7(390m) 8(720m)
Ortszeit Luftdruck NN (hPa) Tendenz (hPa in 3 Std.)
Mi, 12.05. 8:00 1010 + 0,9
Mi, 12.05. 2:00 1009 + 0,6
Di, 11.05. 20:00 1006 + 0,8
Di, 11.05. 14:00 1005 + 0,4
Di, 11.05. 8:00 1006 0,0
Di, 11.05. 2:00 1007 - 1,0
Mo, 10.05. 20:00 1008 - 0,3
Mo, 10.05. 14:00 1007 + 0,5
Ortszeit Luftdruck NN (hPa) Tendenz (hPa in 3 Std.)
Mi, 12.05. 9:30 1010 + 0,8
Mi, 12.05. 9:20 1010 keine Meldung
Mi, 12.05. 9:10 1010 keine Meldung
Mi, 12.05. 9:00 1010 + 0,9
Mi, 12.05. 8:50 1010 keine Meldung
Mi, 12.05. 8:40 1010 keine Meldung
Mi, 12.05. 8:30 1010 + 0,9
Mi, 12.05. 8:00 1010 + 0,9
Ortszeit Schneehöhe (cm)
Mi, 12.05. 8:00 0
Mi, 12.05. 2:00 0
Di, 11.05. 20:00 0
Di, 11.05. 14:00 0
Di, 11.05. 8:00 0
Di, 11.05. 2:00 0
Mo, 10.05. 20:00 0
Mo, 10.05. 14:00 0
Ortszeit Schneehöhe (cm)
Mi, 12.05. 9:30 0
Mi, 12.05. 9:20 0
Mi, 12.05. 9:10 0
Mi, 12.05. 9:00 0
Mi, 12.05. 8:50 0
Mi, 12.05. 8:40 0
Mi, 12.05. 8:30 0
Mi, 12.05. 8:00 0
Link zu dieser Seite / Seite empfehlen

Das Wetter in ...